Terminal Aerodrome Forecast
Issued by NWS

Home | Current Version | Previous Version | Graphics & Text | Print | Product List | Glossary On
Versions: 1 2 3 4 5 6 7 8 9 10 11 12 13 14 15 16 17 18
000
FTUS43 KGRB 201700
TAFATW
TAF
KATW 201720Z 2018/2118 29017G27KT P6SM -RA BKN010 OVC020
     FM202200 27015G24KT P6SM BKN025 OVC070
     FM210200 25012KT P6SM BKN040
     FM210800 25011KT P6SM BKN030 OVC070
     FM211300 26014G23KT P6SM -RA SCT015 BKN025=

USA.gov is the U.S. government's official web portal to all federal, state and local government web resources and services.